sensor_id;sensor_type;location;lat;lon;timestamp;P1;durP1;ratioP1;P2;durP2;ratioP2
64842;SDS011;51310;52.198;5.422;2022-09-09T00:04:32;2.15;;;1.10;;
64842;SDS011;51310;52.198;5.422;2022-09-09T00:12:42;1.83;;;1.00;;
64842;SDS011;51310;52.198;5.422;2022-09-09T00:18:51;3.10;;;1.30;;
64842;SDS011;51310;52.198;5.422;2022-09-09T00:22:12;3.15;;;1.00;;
64842;SDS011;51310;52.198;5.422;2022-09-09T00:24:46;2.50;;;1.00;;
64842;SDS011;51310;52.198;5.422;2022-09-09T00:32:53;2.78;;;1.02;;
64842;SDS011;51310;52.198;5.422;2022-09-09T00:35:32;2.95;;;1.27;;
64842;SDS011;51310;52.198;5.422;2022-09-09T00:38:12;3.42;;;1.25;;
64842;SDS011;51310;52.198;5.422;2022-09-09T00:41:01;4.28;;;1.50;;
64842;SDS011;51310;52.198;5.422;2022-09-09T00:43:50;4.27;;;1.60;;
64842;SDS011;51310;52.198;5.422;2022-09-09T00:47:09;3.20;;;1.50;;
64842;SDS011;51310;52.198;5.422;2022-09-09T00:53:36;4.68;;;1.65;;
64842;SDS011;51310;52.198;5.422;2022-09-09T00:56:56;3.08;;;1.60;;
64842;SDS011;51310;52.198;5.422;2022-09-09T01:03:33;3.70;;;1.93;;
64842;SDS011;51310;52.198;5.422;2022-09-09T01:06:32;3.27;;;1.90;;
64842;SDS011;51310;52.198;5.422;2022-09-09T01:12:15;6.03;;;2.30;;
64842;SDS011;51310;52.198;5.422;2022-09-09T01:14:51;3.95;;;2.30;;
64842;SDS011;51310;52.198;5.422;2022-09-09T01:17:34;5.13;;;2.20;;
64842;SDS011;51310;52.198;5.422;2022-09-09T01:20:27;4.05;;;2.35;;
64842;SDS011;51310;52.198;5.422;2022-09-09T01:23:25;4.55;;;2.20;;
64842;SDS011;51310;52.198;5.422;2022-09-09T01:28:59;5.25;;;2.50;;
64842;SDS011;51310;52.198;5.422;2022-09-09T01:34:02;3.85;;;2.22;;
64842;SDS011;51310;52.198;5.422;2022-09-09T01:36:46;3.70;;;2.25;;
64842;SDS011;51310;52.198;5.422;2022-09-09T01:39:23;5.75;;;2.50;;
64842;SDS011;51310;52.198;5.422;2022-09-09T01:41:51;3.42;;;2.47;;
64842;SDS011;51310;52.198;5.422;2022-09-09T01:44:18;6.03;;;2.83;;
64842;SDS011;51310;52.198;5.422;2022-09-09T01:46:45;6.83;;;2.53;;
64842;SDS011;51310;52.198;5.422;2022-09-09T01:49:11;4.70;;;2.60;;
64842;SDS011;51310;52.198;5.422;2022-09-09T01:51:37;5.63;;;2.70;;
64842;SDS011;51310;52.198;5.422;2022-09-09T01:54:06;5.63;;;2.95;;
64842;SDS011;51310;52.198;5.422;2022-09-09T01:59:27;9.57;;;3.05;;
64842;SDS011;51310;52.198;5.422;2022-09-09T02:02:19;4.68;;;3.22;;
64842;SDS011;51310;52.198;5.422;2022-09-09T02:08:07;9.63;;;3.15;;
64842;SDS011;51310;52.198;5.422;2022-09-09T02:11:01;6.43;;;3.10;;
64842;SDS011;51310;52.198;5.422;2022-09-09T02:13:47;6.15;;;3.28;;
64842;SDS011;51310;52.198;5.422;2022-09-09T02:16:21;6.80;;;3.50;;
64842;SDS011;51310;52.198;5.422;2022-09-09T02:19:16;6.40;;;3.53;;
64842;SDS011;51310;52.198;5.422;2022-09-09T02:21:52;109.25;;;10.00;;
64842;SDS011;51310;52.198;5.422;2022-09-09T02:24:22;92.03;;;9.05;;
64842;SDS011;51310;52.198;5.422;2022-09-09T02:26:51;938.10;;;58.88;;
64842;SDS011;51310;52.198;5.422;2022-09-09T02:29:26;670.05;;;42.45;;
64842;SDS011;51310;52.198;5.422;2022-09-09T02:32:00;12.45;;;4.90;;
64842;SDS011;51310;52.198;5.422;2022-09-09T02:34:35;11.15;;;5.13;;
64842;SDS011;51310;52.198;5.422;2022-09-09T02:37:08;9.40;;;4.93;;
64842;SDS011;51310;52.198;5.422;2022-09-09T02:39:37;8.13;;;4.60;;
64842;SDS011;51310;52.198;5.422;2022-09-09T02:42:03;9.70;;;5.17;;
64842;SDS011;51310;52.198;5.422;2022-09-09T02:44:30;10.40;;;5.13;;
64842;SDS011;51310;52.198;5.422;2022-09-09T02:50:34;10.52;;;4.97;;
64842;SDS011;51310;52.198;5.422;2022-09-09T02:53:19;10.35;;;4.82;;
64842;SDS011;51310;52.198;5.422;2022-09-09T02:56:18;8.38;;;4.55;;
64842;SDS011;51310;52.198;5.422;2022-09-09T02:58:51;10.07;;;5.35;;
64842;SDS011;51310;52.198;5.422;2022-09-09T03:01:17;9.35;;;4.45;;
64842;SDS011;51310;52.198;5.422;2022-09-09T03:03:43;7.47;;;4.32;;
64842;SDS011;51310;52.198;5.422;2022-09-09T03:06:11;11.30;;;5.32;;
64842;SDS011;51310;52.198;5.422;2022-09-09T03:08:37;7.28;;;4.70;;
64842;SDS011;51310;52.198;5.422;2022-09-09T03:11:03;10.50;;;5.70;;
64842;SDS011;51310;52.198;5.422;2022-09-09T03:13:29;9.25;;;5.03;;
64842;SDS011;51310;52.198;5.422;2022-09-09T03:15:55;11.07;;;5.90;;
64842;SDS011;51310;52.198;5.422;2022-09-09T03:18:21;9.40;;;5.35;;
64842;SDS011;51310;52.198;5.422;2022-09-09T03:20:48;9.77;;;5.35;;
64842;SDS011;51310;52.198;5.422;2022-09-09T03:23:13;11.05;;;5.50;;
64842;SDS011;51310;52.198;5.422;2022-09-09T03:25:45;9.27;;;5.55;;
64842;SDS011;51310;52.198;5.422;2022-09-09T03:28:13;7.85;;;4.75;;
64842;SDS011;51310;52.198;5.422;2022-09-09T03:30:40;10.98;;;5.60;;
64842;SDS011;51310;52.198;5.422;2022-09-09T03:33:06;9.68;;;5.70;;
64842;SDS011;51310;52.198;5.422;2022-09-09T03:35:31;10.77;;;6.05;;
64842;SDS011;51310;52.198;5.422;2022-09-09T03:37:57;9.07;;;5.80;;
64842;SDS011;51310;52.198;5.422;2022-09-09T03:40:25;8.32;;;5.32;;
64842;SDS011;51310;52.198;5.422;2022-09-09T03:42:51;12.98;;;6.10;;
64842;SDS011;51310;52.198;5.422;2022-09-09T03:45:17;11.85;;;6.10;;
64842;SDS011;51310;52.198;5.422;2022-09-09T03:47:43;11.43;;;5.72;;
64842;SDS011;51310;52.198;5.422;2022-09-09T03:50:10;10.83;;;6.00;;
64842;SDS011;51310;52.198;5.422;2022-09-09T03:52:36;13.73;;;5.93;;
64842;SDS011;51310;52.198;5.422;2022-09-09T03:55:05;8.98;;;6.13;;
64842;SDS011;51310;52.198;5.422;2022-09-09T03:57:32;10.80;;;5.88;;
64842;SDS011;51310;52.198;5.422;2022-09-09T04:00:00;9.68;;;5.78;;
64842;SDS011;51310;52.198;5.422;2022-09-09T04:02:33;9.85;;;6.65;;
64842;SDS011;51310;52.198;5.422;2022-09-09T04:04:58;8.68;;;5.80;;
64842;SDS011;51310;52.198;5.422;2022-09-09T04:07:26;14.40;;;5.90;;
64842;SDS011;51310;52.198;5.422;2022-09-09T04:09:53;8.57;;;5.68;;
64842;SDS011;51310;52.198;5.422;2022-09-09T04:12:19;12.70;;;6.20;;
64842;SDS011;51310;52.198;5.422;2022-09-09T04:14:45;9.90;;;6.15;;
64842;SDS011;51310;52.198;5.422;2022-09-09T04:17:11;10.07;;;6.20;;
64842;SDS011;51310;52.198;5.422;2022-09-09T04:19:37;9.95;;;5.88;;
64842;SDS011;51310;52.198;5.422;2022-09-09T04:22:03;10.68;;;6.28;;
64842;SDS011;51310;52.198;5.422;2022-09-09T04:24:29;10.63;;;6.50;;
64842;SDS011;51310;52.198;5.422;2022-09-09T04:26:55;10.73;;;6.03;;
64842;SDS011;51310;52.198;5.422;2022-09-09T04:29:21;14.10;;;5.85;;
64842;SDS011;51310;52.198;5.422;2022-09-09T04:31:47;9.43;;;6.47;;
64842;SDS011;51310;52.198;5.422;2022-09-09T04:34:12;10.67;;;5.97;;
64842;SDS011;51310;52.198;5.422;2022-09-09T04:36:38;12.33;;;6.20;;
64842;SDS011;51310;52.198;5.422;2022-09-09T04:39:05;10.80;;;6.28;;
64842;SDS011;51310;52.198;5.422;2022-09-09T04:41:32;14.50;;;6.30;;
64842;SDS011;51310;52.198;5.422;2022-09-09T04:43:58;13.32;;;6.55;;
64842;SDS011;51310;52.198;5.422;2022-09-09T04:46:25;9.40;;;6.03;;
64842;SDS011;51310;52.198;5.422;2022-09-09T04:48:51;14.50;;;5.95;;
64842;SDS011;51310;52.198;5.422;2022-09-09T04:51:18;11.25;;;6.20;;
64842;SDS011;51310;52.198;5.422;2022-09-09T04:53:44;9.82;;;5.85;;
64842;SDS011;51310;52.198;5.422;2022-09-09T04:56:13;9.48;;;5.43;;
64842;SDS011;51310;52.198;5.422;2022-09-09T04:58:41;11.82;;;6.05;;
64842;SDS011;51310;52.198;5.422;2022-09-09T05:03:38;10.63;;;5.80;;
64842;SDS011;51310;52.198;5.422;2022-09-09T05:06:05;14.50;;;6.10;;
64842;SDS011;51310;52.198;5.422;2022-09-09T05:08:41;12.90;;;5.45;;
64842;SDS011;51310;52.198;5.422;2022-09-09T05:11:19;8.63;;;5.00;;
64842;SDS011;51310;52.198;5.422;2022-09-09T05:13:50;8.13;;;5.45;;
64842;SDS011;51310;52.198;5.422;2022-09-09T05:16:18;10.38;;;4.85;;
64842;SDS011;51310;52.198;5.422;2022-09-09T05:18:45;8.20;;;5.10;;
64842;SDS011;51310;52.198;5.422;2022-09-09T05:21:13;11.45;;;5.13;;
64842;SDS011;51310;52.198;5.422;2022-09-09T05:23:41;8.52;;;5.28;;
64842;SDS011;51310;52.198;5.422;2022-09-09T05:26:09;9.70;;;5.53;;
64842;SDS011;51310;52.198;5.422;2022-09-09T05:28:39;11.57;;;4.95;;
64842;SDS011;51310;52.198;5.422;2022-09-09T05:31:06;13.43;;;5.33;;
64842;SDS011;51310;52.198;5.422;2022-09-09T05:33:37;13.38;;;5.05;;
64842;SDS011;51310;52.198;5.422;2022-09-09T05:36:15;11.77;;;5.30;;
64842;SDS011;51310;52.198;5.422;2022-09-09T05:38:45;17.77;;;5.45;;
64842;SDS011;51310;52.198;5.422;2022-09-09T05:41:12;263.65;;;20.52;;
64842;SDS011;51310;52.198;5.422;2022-09-09T05:43:42;64.97;;;7.68;;
64842;SDS011;51310;52.198;5.422;2022-09-09T05:46:15;13.75;;;4.95;;
64842;SDS011;51310;52.198;5.422;2022-09-09T05:48:45;11.68;;;5.20;;
64842;SDS011;51310;52.198;5.422;2022-09-09T05:51:16;9.13;;;4.93;;
64842;SDS011;51310;52.198;5.422;2022-09-09T05:53:53;11.75;;;4.75;;
64842;SDS011;51310;52.198;5.422;2022-09-09T05:56:25;12.52;;;5.75;;
64842;SDS011;51310;52.198;5.422;2022-09-09T05:58:54;13.50;;;4.87;;
64842;SDS011;51310;52.198;5.422;2022-09-09T06:01:22;10.80;;;5.40;;
64842;SDS011;51310;52.198;5.422;2022-09-09T06:03:56;10.32;;;4.97;;
64842;SDS011;51310;52.198;5.422;2022-09-09T06:06:24;10.27;;;4.93;;
64842;SDS011;51310;52.198;5.422;2022-09-09T06:09:02;11.13;;;4.73;;
64842;SDS011;51310;52.198;5.422;2022-09-09T06:11:31;12.05;;;4.35;;
64842;SDS011;51310;52.198;5.422;2022-09-09T06:13:58;10.73;;;4.30;;
64842;SDS011;51310;52.198;5.422;2022-09-09T06:16:26;13.52;;;4.55;;
64842;SDS011;51310;52.198;5.422;2022-09-09T06:18:54;13.70;;;4.88;;
64842;SDS011;51310;52.198;5.422;2022-09-09T06:21:26;11.65;;;4.57;;
64842;SDS011;51310;52.198;5.422;2022-09-09T06:23:55;10.02;;;4.00;;
64842;SDS011;51310;52.198;5.422;2022-09-09T06:26:23;9.85;;;4.43;;
64842;SDS011;51310;52.198;5.422;2022-09-09T06:28:56;10.68;;;4.30;;
64842;SDS011;51310;52.198;5.422;2022-09-09T06:31:24;10.68;;;4.80;;
64842;SDS011;51310;52.198;5.422;2022-09-09T06:33:57;9.70;;;4.22;;
64842;SDS011;51310;52.198;5.422;2022-09-09T06:36:24;8.52;;;4.43;;
64842;SDS011;51310;52.198;5.422;2022-09-09T06:38:55;11.18;;;4.55;;
64842;SDS011;51310;52.198;5.422;2022-09-09T06:41:21;12.98;;;4.60;;
64842;SDS011;51310;52.198;5.422;2022-09-09T06:43:52;6.93;;;4.10;;
64842;SDS011;51310;52.198;5.422;2022-09-09T06:46:22;16.33;;;4.78;;
64842;SDS011;51310;52.198;5.422;2022-09-09T06:48:52;10.23;;;4.35;;
64842;SDS011;51310;52.198;5.422;2022-09-09T06:51:21;11.38;;;4.20;;
64842;SDS011;51310;52.198;5.422;2022-09-09T06:53:51;8.68;;;4.10;;
64842;SDS011;51310;52.198;5.422;2022-09-09T06:56:24;10.40;;;4.18;;
64842;SDS011;51310;52.198;5.422;2022-09-09T06:59:08;11.48;;;3.38;;
64842;SDS011;51310;52.198;5.422;2022-09-09T07:01:36;13.77;;;4.07;;
64842;SDS011;51310;52.198;5.422;2022-09-09T07:04:09;7.97;;;3.00;;
64842;SDS011;51310;52.198;5.422;2022-09-09T07:06:42;7.22;;;3.03;;
64842;SDS011;51310;52.198;5.422;2022-09-09T07:09:12;11.70;;;3.03;;
64842;SDS011;51310;52.198;5.422;2022-09-09T07:11:41;11.65;;;3.45;;
64842;SDS011;51310;52.198;5.422;2022-09-09T07:14:10;11.82;;;3.50;;
64842;SDS011;51310;52.198;5.422;2022-09-09T07:16:41;10.73;;;3.58;;
64842;SDS011;51310;52.198;5.422;2022-09-09T07:19:09;9.25;;;3.25;;
64842;SDS011;51310;52.198;5.422;2022-09-09T07:21:37;12.50;;;2.40;;
64842;SDS011;51310;52.198;5.422;2022-09-09T07:24:05;10.43;;;2.85;;
64842;SDS011;51310;52.198;5.422;2022-09-09T07:26:34;9.55;;;2.42;;
64842;SDS011;51310;52.198;5.422;2022-09-09T07:29:03;8.25;;;2.22;;
64842;SDS011;51310;52.198;5.422;2022-09-09T07:31:33;8.07;;;2.60;;
64842;SDS011;51310;52.198;5.422;2022-09-09T07:34:03;7.18;;;2.67;;
64842;SDS011;51310;52.198;5.422;2022-09-09T07:36:31;6.88;;;2.67;;
64842;SDS011;51310;52.198;5.422;2022-09-09T07:39:01;6.43;;;2.00;;
64842;SDS011;51310;52.198;5.422;2022-09-09T07:41:34;7.95;;;2.45;;
64842;SDS011;51310;52.198;5.422;2022-09-09T07:44:07;8.82;;;2.35;;
64842;SDS011;51310;52.198;5.422;2022-09-09T07:46:47;15.45;;;3.05;;
64842;SDS011;51310;52.198;5.422;2022-09-09T07:49:13;8.77;;;2.13;;
64842;SDS011;51310;52.198;5.422;2022-09-09T07:51:41;11.68;;;2.42;;
64842;SDS011;51310;52.198;5.422;2022-09-09T07:54:11;7.47;;;2.33;;
64842;SDS011;51310;52.198;5.422;2022-09-09T07:56:41;6.17;;;1.80;;
64842;SDS011;51310;52.198;5.422;2022-09-09T07:59:07;9.82;;;2.45;;
64842;SDS011;51310;52.198;5.422;2022-09-09T08:01:38;8.40;;;2.42;;
64842;SDS011;51310;52.198;5.422;2022-09-09T08:04:12;12.30;;;1.90;;
64842;SDS011;51310;52.198;5.422;2022-09-09T08:06:45;6.95;;;2.40;;
64842;SDS011;51310;52.198;5.422;2022-09-09T08:09:17;7.85;;;2.05;;
64842;SDS011;51310;52.198;5.422;2022-09-09T08:11:44;10.13;;;2.38;;
64842;SDS011;51310;52.198;5.422;2022-09-09T08:14:10;6.97;;;2.00;;
64842;SDS011;51310;52.198;5.422;2022-09-09T08:16:39;3.97;;;1.55;;
64842;SDS011;51310;52.198;5.422;2022-09-09T08:19:10;7.90;;;2.10;;
64842;SDS011;51310;52.198;5.422;2022-09-09T08:21:38;9.38;;;2.28;;
64842;SDS011;51310;52.198;5.422;2022-09-09T08:24:06;10.87;;;2.00;;
64842;SDS011;51310;52.198;5.422;2022-09-09T08:26:39;10.38;;;1.88;;
64842;SDS011;51310;52.198;5.422;2022-09-09T08:29:10;8.02;;;1.85;;
64842;SDS011;51310;52.198;5.422;2022-09-09T08:31:42;7.13;;;1.92;;
64842;SDS011;51310;52.198;5.422;2022-09-09T08:34:19;9.57;;;1.80;;
64842;SDS011;51310;52.198;5.422;2022-09-09T08:36:46;8.25;;;2.03;;
64842;SDS011;51310;52.198;5.422;2022-09-09T08:39:15;8.35;;;2.10;;
64842;SDS011;51310;52.198;5.422;2022-09-09T08:41:49;6.95;;;1.75;;
64842;SDS011;51310;52.198;5.422;2022-09-09T08:50:13;11.00;;;2.15;;
64842;SDS011;51310;52.198;5.422;2022-09-09T08:58:28;8.48;;;1.95;;
64842;SDS011;51310;52.198;5.422;2022-09-09T09:04:29;7.63;;;1.90;;
64842;SDS011;51310;52.198;5.422;2022-09-09T09:12:55;7.68;;;2.45;;
64842;SDS011;51310;52.198;5.422;2022-09-09T09:15:26;10.30;;;2.63;;
64842;SDS011;51310;52.198;5.422;2022-09-09T09:18:03;8.40;;;1.95;;
64842;SDS011;51310;52.198;5.422;2022-09-09T09:21:32;9.48;;;1.90;;
64842;SDS011;51310;52.198;5.422;2022-09-09T09:24:16;11.07;;;2.33;;
64842;SDS011;51310;52.198;5.422;2022-09-09T09:26:50;5.68;;;1.88;;
64842;SDS011;51310;52.198;5.422;2022-09-09T09:29:18;7.63;;;2.10;;
64842;SDS011;51310;52.198;5.422;2022-09-09T09:31:53;7.35;;;2.55;;
64842;SDS011;51310;52.198;5.422;2022-09-09T09:34:26;11.73;;;2.63;;
64842;SDS011;51310;52.198;5.422;2022-09-09T09:36:54;10.63;;;2.78;;
64842;SDS011;51310;52.198;5.422;2022-09-09T09:39:27;7.93;;;2.10;;
64842;SDS011;51310;52.198;5.422;2022-09-09T09:42:09;8.37;;;2.73;;
64842;SDS011;51310;52.198;5.422;2022-09-09T09:44:40;13.80;;;2.17;;
64842;SDS011;51310;52.198;5.422;2022-09-09T09:47:08;8.55;;;1.92;;
64842;SDS011;51310;52.198;5.422;2022-09-09T09:49:53;9.30;;;2.33;;
64842;SDS011;51310;52.198;5.422;2022-09-09T09:52:28;9.10;;;2.40;;
64842;SDS011;51310;52.198;5.422;2022-09-09T09:54:59;10.43;;;1.88;;
64842;SDS011;51310;52.198;5.422;2022-09-09T09:57:32;7.57;;;1.65;;
64842;SDS011;51310;52.198;5.422;2022-09-09T10:00:18;4.80;;;1.83;;
64842;SDS011;51310;52.198;5.422;2022-09-09T10:02:48;6.43;;;2.38;;
64842;SDS011;51310;52.198;5.422;2022-09-09T10:05:21;9.80;;;2.08;;
64842;SDS011;51310;52.198;5.422;2022-09-09T10:08:00;9.63;;;2.53;;
64842;SDS011;51310;52.198;5.422;2022-09-09T10:10:39;11.27;;;1.92;;
64842;SDS011;51310;52.198;5.422;2022-09-09T10:22:35;12.48;;;2.30;;
64842;SDS011;51310;52.198;5.422;2022-09-09T10:25:18;8.00;;;1.52;;
64842;SDS011;51310;52.198;5.422;2022-09-09T10:28:30;7.70;;;1.65;;
64842;SDS011;51310;52.198;5.422;2022-09-09T10:31:26;6.60;;;1.88;;
64842;SDS011;51310;52.198;5.422;2022-09-09T10:37:46;10.02;;;2.40;;
64842;SDS011;51310;52.198;5.422;2022-09-09T10:50:28;5.90;;;1.80;;
64842;SDS011;51310;52.198;5.422;2022-09-09T10:56:31;5.73;;;1.80;;
64842;SDS011;51310;52.198;5.422;2022-09-09T10:59:04;7.47;;;2.10;;
64842;SDS011;51310;52.198;5.422;2022-09-09T11:01:53;10.18;;;2.55;;
64842;SDS011;51310;52.198;5.422;2022-09-09T11:04:34;7.43;;;2.03;;
64842;SDS011;51310;52.198;5.422;2022-09-09T11:08:01;5.25;;;1.75;;
64842;SDS011;51310;52.198;5.422;2022-09-09T11:10:22;6.03;;;1.98;;
64842;SDS011;51310;52.198;5.422;2022-09-09T11:13:37;6.85;;;1.80;;
64842;SDS011;51310;52.198;5.422;2022-09-09T11:19:21;6.95;;;1.83;;
64842;SDS011;51310;52.198;5.422;2022-09-09T11:22:25;9.07;;;2.05;;
64842;SDS011;51310;52.198;5.422;2022-09-09T11:25:14;7.88;;;1.63;;
64842;SDS011;51310;52.198;5.422;2022-09-09T11:42:15;6.65;;;2.17;;
64842;SDS011;51310;52.198;5.422;2022-09-09T11:44:47;5.45;;;1.60;;
64842;SDS011;51310;52.198;5.422;2022-09-09T11:47:26;3.53;;;1.30;;
64842;SDS011;51310;52.198;5.422;2022-09-09T11:50:09;5.88;;;1.90;;
64842;SDS011;51310;52.198;5.422;2022-09-09T11:52:43;6.03;;;2.08;;
64842;SDS011;51310;52.198;5.422;2022-09-09T11:55:32;4.85;;;1.38;;
64842;SDS011;51310;52.198;5.422;2022-09-09T12:08:52;6.90;;;2.05;;
64842;SDS011;51310;52.198;5.422;2022-09-09T12:11:33;8.47;;;2.47;;
64842;SDS011;51310;52.198;5.422;2022-09-09T12:13:59;6.85;;;2.58;;
64842;SDS011;51310;52.198;5.422;2022-09-09T12:16:27;5.43;;;1.97;;
64842;SDS011;51310;52.198;5.422;2022-09-09T12:19:32;6.35;;;2.60;;
64842;SDS011;51310;52.198;5.422;2022-09-09T12:21:54;8.00;;;2.15;;
64842;SDS011;51310;52.198;5.422;2022-09-09T12:24:42;6.55;;;1.73;;
64842;SDS011;51310;52.198;5.422;2022-09-09T12:27:22;6.65;;;1.80;;
64842;SDS011;51310;52.198;5.422;2022-09-09T12:32:35;7.15;;;2.20;;
64842;SDS011;51310;52.198;5.422;2022-09-09T12:35:03;6.43;;;2.05;;
64842;SDS011;51310;52.198;5.422;2022-09-09T12:37:52;8.68;;;2.10;;
64842;SDS011;51310;52.198;5.422;2022-09-09T12:40:27;5.20;;;1.90;;
64842;SDS011;51310;52.198;5.422;2022-09-09T12:43:00;6.05;;;1.98;;
64842;SDS011;51310;52.198;5.422;2022-09-09T12:45:40;6.38;;;2.50;;
64842;SDS011;51310;52.198;5.422;2022-09-09T12:48:07;8.02;;;2.33;;
64842;SDS011;51310;52.198;5.422;2022-09-09T12:50:46;5.00;;;1.92;;
64842;SDS011;51310;52.198;5.422;2022-09-09T12:53:24;6.43;;;2.05;;
64842;SDS011;51310;52.198;5.422;2022-09-09T12:56:01;7.00;;;1.98;;
64842;SDS011;51310;52.198;5.422;2022-09-09T12:58:33;4.60;;;2.40;;
64842;SDS011;51310;52.198;5.422;2022-09-09T13:01:03;7.75;;;1.90;;
64842;SDS011;51310;52.198;5.422;2022-09-09T13:03:31;5.07;;;2.08;;
64842;SDS011;51310;52.198;5.422;2022-09-09T13:06:12;6.78;;;2.10;;
64842;SDS011;51310;52.198;5.422;2022-09-09T13:08:50;3.33;;;2.00;;
64842;SDS011;51310;52.198;5.422;2022-09-09T13:11:31;7.63;;;2.10;;
64842;SDS011;51310;52.198;5.422;2022-09-09T13:14:12;5.75;;;1.70;;
64842;SDS011;51310;52.198;5.422;2022-09-09T13:16:58;5.60;;;1.52;;
64842;SDS011;51310;52.198;5.422;2022-09-09T13:19:29;7.18;;;2.20;;
64842;SDS011;51310;52.198;5.422;2022-09-09T13:22:12;7.30;;;1.70;;
64842;SDS011;51310;52.198;5.422;2022-09-09T13:25:04;7.40;;;1.92;;
64842;SDS011;51310;52.198;5.422;2022-09-09T13:33:28;5.93;;;1.73;;
64842;SDS011;51310;52.198;5.422;2022-09-09T13:38:23;7.40;;;2.10;;
64842;SDS011;51310;52.198;5.422;2022-09-09T13:40:52;5.03;;;1.60;;
64842;SDS011;51310;52.198;5.422;2022-09-09T13:43:30;5.95;;;1.75;;
64842;SDS011;51310;52.198;5.422;2022-09-09T13:46:32;7.13;;;1.83;;
64842;SDS011;51310;52.198;5.422;2022-09-09T13:54:04;8.15;;;2.53;;
64842;SDS011;51310;52.198;5.422;2022-09-09T13:56:32;5.13;;;1.88;;
64842;SDS011;51310;52.198;5.422;2022-09-09T13:59:00;8.85;;;2.30;;
64842;SDS011;51310;52.198;5.422;2022-09-09T14:01:27;6.90;;;2.25;;
64842;SDS011;51310;52.198;5.422;2022-09-09T14:03:54;5.13;;;2.20;;
64842;SDS011;51310;52.198;5.422;2022-09-09T14:06:20;3.75;;;1.70;;
64842;SDS011;51310;52.198;5.422;2022-09-09T14:08:47;8.63;;;2.60;;
64842;SDS011;51310;52.198;5.422;2022-09-09T14:11:15;5.18;;;1.85;;
64842;SDS011;51310;52.198;5.422;2022-09-09T14:13:43;4.25;;;2.00;;
64842;SDS011;51310;52.198;5.422;2022-09-09T14:16:09;7.05;;;2.63;;
64842;SDS011;51310;52.198;5.422;2022-09-09T14:18:35;8.45;;;2.45;;
64842;SDS011;51310;52.198;5.422;2022-09-09T14:21:03;5.15;;;1.70;;
64842;SDS011;51310;52.198;5.422;2022-09-09T14:23:29;7.28;;;2.20;;
64842;SDS011;51310;52.198;5.422;2022-09-09T14:25:55;6.35;;;2.28;;
64842;SDS011;51310;52.198;5.422;2022-09-09T14:28:21;6.18;;;2.13;;
64842;SDS011;51310;52.198;5.422;2022-09-09T14:30:47;5.97;;;1.80;;
64842;SDS011;51310;52.198;5.422;2022-09-09T14:33:14;6.53;;;1.83;;
64842;SDS011;51310;52.198;5.422;2022-09-09T14:35:41;4.22;;;1.90;;
64842;SDS011;51310;52.198;5.422;2022-09-09T14:38:09;6.97;;;1.80;;
64842;SDS011;51310;52.198;5.422;2022-09-09T14:40:36;6.18;;;2.35;;
64842;SDS011;51310;52.198;5.422;2022-09-09T14:43:04;5.88;;;1.70;;
64842;SDS011;51310;52.198;5.422;2022-09-09T14:45:30;7.25;;;2.35;;
64842;SDS011;51310;52.198;5.422;2022-09-09T14:47:57;7.47;;;1.90;;
64842;SDS011;51310;52.198;5.422;2022-09-09T14:50:24;5.13;;;1.85;;
64842;SDS011;51310;52.198;5.422;2022-09-09T14:52:50;5.57;;;2.05;;
64842;SDS011;51310;52.198;5.422;2022-09-09T14:55:16;4.60;;;1.98;;
64842;SDS011;51310;52.198;5.422;2022-09-09T14:57:42;4.70;;;1.90;;
64842;SDS011;51310;52.198;5.422;2022-09-09T15:00:09;6.90;;;2.10;;
64842;SDS011;51310;52.198;5.422;2022-09-09T15:02:36;5.63;;;2.10;;
64842;SDS011;51310;52.198;5.422;2022-09-09T15:05:03;6.90;;;2.50;;
64842;SDS011;51310;52.198;5.422;2022-09-09T15:07:30;5.28;;;2.15;;
64842;SDS011;51310;52.198;5.422;2022-09-09T15:09:56;5.75;;;1.83;;
64842;SDS011;51310;52.198;5.422;2022-09-09T15:12:23;4.38;;;1.95;;
64842;SDS011;51310;52.198;5.422;2022-09-09T15:14:49;9.50;;;2.47;;
64842;SDS011;51310;52.198;5.422;2022-09-09T15:17:15;5.78;;;2.20;;
64842;SDS011;51310;52.198;5.422;2022-09-09T15:19:42;6.60;;;2.00;;
64842;SDS011;51310;52.198;5.422;2022-09-09T15:22:08;6.30;;;2.33;;
64842;SDS011;51310;52.198;5.422;2022-09-09T15:24:34;5.22;;;2.20;;
64842;SDS011;51310;52.198;5.422;2022-09-09T15:27:00;6.88;;;2.13;;
64842;SDS011;51310;52.198;5.422;2022-09-09T15:29:27;5.18;;;1.85;;
64842;SDS011;51310;52.198;5.422;2022-09-09T15:31:54;4.67;;;2.00;;
64842;SDS011;51310;52.198;5.422;2022-09-09T15:34:20;5.28;;;1.67;;
64842;SDS011;51310;52.198;5.422;2022-09-09T15:36:47;5.88;;;1.40;;
64842;SDS011;51310;52.198;5.422;2022-09-09T15:39:14;4.00;;;1.38;;
64842;SDS011;51310;52.198;5.422;2022-09-09T15:41:43;5.20;;;1.40;;
64842;SDS011;51310;52.198;5.422;2022-09-09T15:44:13;4.05;;;1.55;;
64842;SDS011;51310;52.198;5.422;2022-09-09T15:51:59;6.07;;;1.38;;
64842;SDS011;51310;52.198;5.422;2022-09-09T15:54:31;4.68;;;1.58;;
64842;SDS011;51310;52.198;5.422;2022-09-09T15:57:02;3.80;;;1.15;;
64842;SDS011;51310;52.198;5.422;2022-09-09T15:59:31;3.75;;;1.10;;
64842;SDS011;51310;52.198;5.422;2022-09-09T16:01:58;3.53;;;1.42;;
64842;SDS011;51310;52.198;5.422;2022-09-09T16:04:25;4.10;;;1.23;;
64842;SDS011;51310;52.198;5.422;2022-09-09T16:06:55;5.65;;;1.40;;
64842;SDS011;51310;52.198;5.422;2022-09-09T16:09:31;4.00;;;1.48;;
64842;SDS011;51310;52.198;5.422;2022-09-09T16:11:59;6.28;;;1.48;;
64842;SDS011;51310;52.198;5.422;2022-09-09T16:14:27;8.85;;;2.70;;
64842;SDS011;51310;52.198;5.422;2022-09-09T16:16:59;5.53;;;1.73;;
64842;SDS011;51310;52.198;5.422;2022-09-09T16:19:25;4.40;;;1.50;;
64842;SDS011;51310;52.198;5.422;2022-09-09T16:21:51;4.18;;;1.63;;
64842;SDS011;51310;52.198;5.422;2022-09-09T16:24:18;5.00;;;1.70;;
64842;SDS011;51310;52.198;5.422;2022-09-09T16:26:46;4.00;;;1.42;;
64842;SDS011;51310;52.198;5.422;2022-09-09T16:29:17;6.75;;;1.63;;
64842;SDS011;51310;52.198;5.422;2022-09-09T16:31:44;5.90;;;1.52;;
64842;SDS011;51310;52.198;5.422;2022-09-09T16:34:12;3.88;;;1.42;;
64842;SDS011;51310;52.198;5.422;2022-09-09T16:36:40;4.32;;;1.52;;
64842;SDS011;51310;52.198;5.422;2022-09-09T16:39:09;4.60;;;1.50;;
64842;SDS011;51310;52.198;5.422;2022-09-09T16:41:40;3.90;;;1.77;;
64842;SDS011;51310;52.198;5.422;2022-09-09T16:44:09;5.90;;;2.73;;
64842;SDS011;51310;52.198;5.422;2022-09-09T16:46:38;3.53;;;1.75;;
64842;SDS011;51310;52.198;5.422;2022-09-09T16:49:08;3.72;;;1.70;;
64842;SDS011;51310;52.198;5.422;2022-09-09T16:51:39;4.75;;;2.15;;
64842;SDS011;51310;52.198;5.422;2022-09-09T16:54:12;5.55;;;2.35;;
64842;SDS011;51310;52.198;5.422;2022-09-09T16:56:41;5.10;;;2.03;;
64842;SDS011;51310;52.198;5.422;2022-09-09T16:59:13;3.80;;;1.70;;
64842;SDS011;51310;52.198;5.422;2022-09-09T17:01:42;4.03;;;2.00;;
64842;SDS011;51310;52.198;5.422;2022-09-09T17:04:15;4.20;;;1.85;;
64842;SDS011;51310;52.198;5.422;2022-09-09T17:06:46;6.65;;;1.80;;
64842;SDS011;51310;52.198;5.422;2022-09-09T17:09:15;3.22;;;1.50;;
64842;SDS011;51310;52.198;5.422;2022-09-09T17:11:42;8.00;;;2.13;;
64842;SDS011;51310;52.198;5.422;2022-09-09T17:14:11;6.60;;;2.00;;
64842;SDS011;51310;52.198;5.422;2022-09-09T17:16:42;6.97;;;3.40;;
64842;SDS011;51310;52.198;5.422;2022-09-09T17:19:09;6.07;;;2.70;;
64842;SDS011;51310;52.198;5.422;2022-09-09T17:21:37;5.85;;;2.30;;
64842;SDS011;51310;52.198;5.422;2022-09-09T17:24:03;6.23;;;2.20;;
64842;SDS011;51310;52.198;5.422;2022-09-09T17:26:30;4.80;;;1.90;;
64842;SDS011;51310;52.198;5.422;2022-09-09T17:28:58;7.68;;;2.33;;
64842;SDS011;51310;52.198;5.422;2022-09-09T17:31:26;4.82;;;2.47;;
64842;SDS011;51310;52.198;5.422;2022-09-09T17:33:54;8.00;;;2.35;;
64842;SDS011;51310;52.198;5.422;2022-09-09T17:36:23;4.10;;;2.08;;
64842;SDS011;51310;52.198;5.422;2022-09-09T17:38:59;9.60;;;2.60;;